createdAt,value
2022-08-21T00:01:44.771Z,14.66
2022-08-21T00:04:31.678Z,14.57
2022-08-21T00:07:19.350Z,14.68
2022-08-21T00:10:06.273Z,14.66
2022-08-21T00:12:53.645Z,14.60
2022-08-21T00:15:41.634Z,14.58
2022-08-21T00:18:28.726Z,14.56
2022-08-21T00:21:16.157Z,14.47
2022-08-21T00:24:03.045Z,14.30
2022-08-21T00:26:50.137Z,14.50
2022-08-21T00:29:36.959Z,14.27
2022-08-21T00:32:25.806Z,14.33
2022-08-21T00:35:16.758Z,14.17
2022-08-21T00:38:05.579Z,14.36
2022-08-21T00:40:57.822Z,14.35
2022-08-21T00:43:46.683Z,14.11
2022-08-21T00:46:33.157Z,14.29
2022-08-21T00:49:19.500Z,13.98
2022-08-21T00:52:11.901Z,14.00
2022-08-21T00:54:59.741Z,14.15
2022-08-21T00:57:52.979Z,14.10
2022-08-21T01:00:42.237Z,14.05
2022-08-21T01:03:28.947Z,13.87
2022-08-21T01:06:15.286Z,13.71
2022-08-21T01:09:01.646Z,13.97
2022-08-21T01:11:48.634Z,13.94
2022-08-21T01:14:35.654Z,14.04
2022-08-21T01:17:22.247Z,13.77
2022-08-21T01:20:11.643Z,13.78
2022-08-21T01:22:59.196Z,13.60
2022-08-21T01:25:45.804Z,13.57
2022-08-21T01:28:37.740Z,13.75
2022-08-21T01:31:26.391Z,13.72
2022-08-21T01:34:13.360Z,13.70
2022-08-21T01:36:59.802Z,13.64
2022-08-21T01:39:47.127Z,13.42
2022-08-21T01:42:34.534Z,13.53
2022-08-21T01:45:21.591Z,13.23
2022-08-21T01:48:08.105Z,13.29
2022-08-21T01:50:56.938Z,13.08
2022-08-21T01:53:43.510Z,13.10
2022-08-21T01:56:36.986Z,13.29
2022-08-21T01:59:25.114Z,13.21
2022-08-21T02:02:11.606Z,13.09
2022-08-21T02:04:58.226Z,13.00
2022-08-21T02:07:48.189Z,13.06
2022-08-21T02:10:34.970Z,13.09
2022-08-21T02:13:21.633Z,12.67
2022-08-21T02:16:09.100Z,12.78
2022-08-21T02:18:55.438Z,12.71
2022-08-21T02:21:42.302Z,12.95
2022-08-21T02:24:28.616Z,12.85
2022-08-21T02:27:14.846Z,12.40
2022-08-21T02:30:01.530Z,12.72
2022-08-21T02:32:48.101Z,12.79
2022-08-21T02:35:34.627Z,12.88
2022-08-21T02:38:25.586Z,12.75
2022-08-21T02:41:15.530Z,12.78
2022-08-21T02:44:02.117Z,12.60
2022-08-21T02:46:48.436Z,12.49
2022-08-21T02:49:34.741Z,12.66
2022-08-21T02:52:22.693Z,12.32
2022-08-21T02:55:08.932Z,12.53
2022-08-21T02:57:56.153Z,12.39
2022-08-21T03:00:44.612Z,12.46
2022-08-21T03:03:31.361Z,12.35
2022-08-21T03:06:20.578Z,12.52
2022-08-21T03:09:06.690Z,12.50
2022-08-21T03:11:53.037Z,12.22
2022-08-21T03:14:39.530Z,12.31
2022-08-21T03:17:29.834Z,12.44
2022-08-21T03:20:24.678Z,12.26
2022-08-21T03:23:13.193Z,12.23
2022-08-21T03:26:03.776Z,12.30
2022-08-21T03:28:51.580Z,12.17
2022-08-21T03:31:37.802Z,12.19
2022-08-21T03:34:24.239Z,12.03
2022-08-21T03:37:11.740Z,12.08
2022-08-21T03:39:58.407Z,12.19
2022-08-21T03:42:47.885Z,12.05
2022-08-21T03:45:34.394Z,11.94
2022-08-21T03:48:21.027Z,12.15
2022-08-21T03:51:08.034Z,11.97
2022-08-21T03:53:55.423Z,11.83
2022-08-21T03:56:41.709Z,11.82
2022-08-21T03:59:28.071Z,11.76
2022-08-21T04:02:20.429Z,11.75
2022-08-21T04:05:08.025Z,11.77
2022-08-21T04:07:59.798Z,11.77
2022-08-21T04:10:49.761Z,11.91
2022-08-21T04:13:36.204Z,11.73
2022-08-21T04:16:31.862Z,11.87
2022-08-21T04:19:18.348Z,11.69
2022-08-21T04:22:05.094Z,11.65
2022-08-21T04:24:51.462Z,11.65
2022-08-21T04:27:37.750Z,11.53
2022-08-21T04:30:28.471Z,11.50
2022-08-21T04:33:15.578Z,11.52
2022-08-21T04:36:02.578Z,11.61
2022-08-21T04:38:49.521Z,11.60
2022-08-21T04:41:36.862Z,11.58
2022-08-21T04:44:23.029Z,11.75
2022-08-21T04:47:09.246Z,11.66
2022-08-21T04:49:55.640Z,11.77
2022-08-21T04:52:42.297Z,11.77
2022-08-21T04:55:29.362Z,11.84
2022-08-21T04:58:19.936Z,11.87
2022-08-21T05:01:12.504Z,12.14
2022-08-21T05:04:01.667Z,12.05
2022-08-21T05:06:49.772Z,12.12
2022-08-21T05:09:39.003Z,12.31
2022-08-21T05:12:25.934Z,12.79
2022-08-21T05:15:15.482Z,13.67
2022-08-21T05:18:01.775Z,14.31
2022-08-21T05:20:48.484Z,15.06
2022-08-21T05:23:34.893Z,15.21
2022-08-21T05:26:20.980Z,15.15
2022-08-21T05:29:10.615Z,15.48
2022-08-21T05:31:59.473Z,15.51
2022-08-21T05:34:46.016Z,15.41
2022-08-21T05:37:32.535Z,15.32
2022-08-21T05:40:21.236Z,15.17
2022-08-21T05:43:09.041Z,15.01
2022-08-21T05:45:55.537Z,14.85
2022-08-21T05:48:41.981Z,14.78
2022-08-21T05:51:28.286Z,14.77
2022-08-21T05:54:14.565Z,14.72
2022-08-21T05:57:01.091Z,14.85
2022-08-21T05:59:47.365Z,14.87
2022-08-21T06:02:33.598Z,14.89
2022-08-21T06:05:33.433Z,15.00
2022-08-21T06:08:23.574Z,14.76
2022-08-21T06:11:10.210Z,15.16
2022-08-21T06:13:56.741Z,15.39
2022-08-21T06:16:43.436Z,15.58
2022-08-21T06:19:29.988Z,15.62
2022-08-21T06:22:16.405Z,15.52
2022-08-21T06:25:03.009Z,15.61
2022-08-21T06:27:50.039Z,16.11
2022-08-21T06:30:38.151Z,16.13
2022-08-21T06:33:26.333Z,16.45
2022-08-21T06:36:16.421Z,16.61
2022-08-21T06:39:16.299Z,16.71
2022-08-21T06:42:15.273Z,16.94
2022-08-21T06:45:01.446Z,17.09
2022-08-21T06:47:48.041Z,17.36
2022-08-21T06:50:35.256Z,17.44
2022-08-21T06:53:22.016Z,17.37
2022-08-21T06:56:08.957Z,17.59
2022-08-21T06:58:55.606Z,17.51
2022-08-21T07:01:42.279Z,17.83
2022-08-21T07:04:28.789Z,17.82
2022-08-21T07:07:15.198Z,18.07
2022-08-21T07:10:01.502Z,18.01
2022-08-21T07:12:48.089Z,18.36
2022-08-21T07:15:34.235Z,18.34
2022-08-21T07:18:21.067Z,18.65
2022-08-21T07:21:08.458Z,18.70
2022-08-21T07:23:54.867Z,18.55
2022-08-21T07:26:41.626Z,18.95
2022-08-21T07:29:27.849Z,18.66
2022-08-21T07:32:19.595Z,18.94
2022-08-21T07:35:08.408Z,19.10
2022-08-21T07:37:55.118Z,19.40
2022-08-21T07:40:41.702Z,19.21
2022-08-21T07:43:30.049Z,19.37
2022-08-21T07:46:16.440Z,19.62
2022-08-21T07:49:02.635Z,19.65
2022-08-21T07:51:48.952Z,19.67
2022-08-21T07:54:35.353Z,19.67
2022-08-21T07:57:21.837Z,19.78
2022-08-21T08:00:12.877Z,20.07
2022-08-21T08:02:59.876Z,20.01
2022-08-21T08:05:46.357Z,20.02
2022-08-21T08:08:33.029Z,20.28
2022-08-21T08:11:19.551Z,20.26
2022-08-21T08:14:05.892Z,20.63
2022-08-21T08:16:52.158Z,20.44
2022-08-21T08:19:39.821Z,20.52
2022-08-21T08:22:26.284Z,20.62
2022-08-21T08:25:14.695Z,20.88
2022-08-21T08:28:00.981Z,20.97
2022-08-21T08:30:47.510Z,20.96
2022-08-21T08:33:33.902Z,21.22
2022-08-21T08:36:20.357Z,21.35
2022-08-21T08:39:06.944Z,21.20
2022-08-21T08:42:33.968Z,21.45
2022-08-21T08:45:24.805Z,21.58
2022-08-21T08:48:15.523Z,21.56
2022-08-21T08:51:04.164Z,21.63
2022-08-21T08:53:56.176Z,21.65
2022-08-21T08:56:42.805Z,21.82
2022-08-21T08:59:38.998Z,22.03
2022-08-21T09:02:25.466Z,22.16
2022-08-21T09:05:43.641Z,22.23
2022-08-21T09:08:45.407Z,22.35
2022-08-21T09:11:49.690Z,22.24
2022-08-21T09:15:10.457Z,22.31
2022-08-21T09:18:21.481Z,22.41
2022-08-21T09:21:21.862Z,22.55
2022-08-21T09:24:29.895Z,22.78
2022-08-21T09:27:20.042Z,22.82
2022-08-21T09:30:08.049Z,22.88
2022-08-21T09:32:54.398Z,22.95
2022-08-21T09:35:54.028Z,22.91
2022-08-21T09:38:40.622Z,22.80
2022-08-21T09:41:32.091Z,23.02
2022-08-21T09:44:30.355Z,23.27
2022-08-21T09:47:22.779Z,23.36
2022-08-21T09:50:26.037Z,23.60
2022-08-21T09:53:35.759Z,23.47
2022-08-21T09:57:19.323Z,23.41
2022-08-21T10:00:33.692Z,23.62
2022-08-21T10:03:22.436Z,23.85
2022-08-21T10:06:11.654Z,23.98
2022-08-21T10:09:18.736Z,24.10
2022-08-21T10:12:05.213Z,24.00
2022-08-21T10:15:08.235Z,24.07
2022-08-21T10:18:27.599Z,24.04
2022-08-21T10:21:58.691Z,23.91
2022-08-21T10:25:13.633Z,23.98
2022-08-21T10:28:23.038Z,24.24
2022-08-21T10:31:18.580Z,24.24
2022-08-21T10:34:04.943Z,24.08
2022-08-21T10:37:16.370Z,23.95
2022-08-21T10:40:36.051Z,24.19
2022-08-21T10:43:48.698Z,24.40
2022-08-21T10:47:05.629Z,24.24
2022-08-21T10:50:20.535Z,24.40
2022-08-21T10:53:35.958Z,24.54
2022-08-21T10:56:27.619Z,24.43
2022-08-21T10:59:26.686Z,24.78
2022-08-21T11:02:31.462Z,25.14
2022-08-21T11:05:43.429Z,25.20
2022-08-21T11:08:38.611Z,25.18
2022-08-21T11:11:35.813Z,25.21
2022-08-21T11:14:35.184Z,25.14
2022-08-21T11:17:58.295Z,25.31
2022-08-21T11:20:57.853Z,25.28
2022-08-21T11:23:58.383Z,25.35
2022-08-21T11:26:55.121Z,25.28
2022-08-21T11:29:44.801Z,25.16
2022-08-21T11:32:56.060Z,25.62
2022-08-21T11:35:51.646Z,25.72
2022-08-21T11:38:45.930Z,25.87
2022-08-21T11:41:40.041Z,25.95
2022-08-21T11:44:54.807Z,25.92
2022-08-21T11:47:50.909Z,26.08
2022-08-21T11:50:43.497Z,26.33
2022-08-21T11:53:39.086Z,26.07
2022-08-21T11:56:30.972Z,26.26
2022-08-21T11:59:24.598Z,26.67
2022-08-21T12:02:20.678Z,26.77
2022-08-21T12:05:23.034Z,26.94
2022-08-21T12:08:32.387Z,26.98
2022-08-21T12:11:18.581Z,27.12
2022-08-21T12:14:08.134Z,27.41
2022-08-21T12:17:06.969Z,27.60
2022-08-21T12:20:17.573Z,27.75
2022-08-21T12:23:13.361Z,28.06
2022-08-21T12:26:14.287Z,28.37
2022-08-21T12:29:17.717Z,28.71
2022-08-21T12:32:10.759Z,28.91
2022-08-21T12:35:23.192Z,28.95
2022-08-21T12:38:20.287Z,28.84
2022-08-21T12:41:14.085Z,28.31
2022-08-21T12:44:23.297Z,27.59
2022-08-21T12:48:00.356Z,26.85
2022-08-21T12:50:52.012Z,26.42
2022-08-21T12:53:46.906Z,26.35
2022-08-21T12:56:35.201Z,25.69
2022-08-21T12:59:21.456Z,25.86
2022-08-21T13:02:19.466Z,25.82
2022-08-21T13:05:10.451Z,25.66
2022-08-21T13:07:57.941Z,25.71
2022-08-21T13:10:46.425Z,25.82
2022-08-21T13:13:34.046Z,26.31
2022-08-21T13:16:30.461Z,26.29
2022-08-21T13:19:23.949Z,26.19
2022-08-21T13:22:34.055Z,26.67
2022-08-21T13:25:25.660Z,27.24
2022-08-21T13:28:15.754Z,27.27
2022-08-21T13:31:04.906Z,27.37
2022-08-21T13:33:51.986Z,27.30
2022-08-21T13:36:42.116Z,27.34
2022-08-21T13:39:28.730Z,27.28
2022-08-21T13:42:15.465Z,26.98
2022-08-21T13:45:02.296Z,26.81
2022-08-21T13:47:49.210Z,26.34
2022-08-21T13:50:38.882Z,26.55
2022-08-21T13:53:32.306Z,27.07
2022-08-21T13:56:44.067Z,27.50
2022-08-21T13:59:36.383Z,28.13
2022-08-21T14:02:25.090Z,28.17
2022-08-21T14:05:20.488Z,28.29
2022-08-21T14:08:15.508Z,28.12
2022-08-21T14:11:06.466Z,27.94
2022-08-21T14:14:01.684Z,27.99
2022-08-21T14:16:56.754Z,28.03
2022-08-21T14:19:47.929Z,28.19
2022-08-21T14:22:48.634Z,28.05
2022-08-21T14:25:43.972Z,28.16
2022-08-21T14:28:34.146Z,28.07
2022-08-21T14:31:22.943Z,27.95
2022-08-21T14:34:18.982Z,27.72
2022-08-21T14:37:06.270Z,27.81
2022-08-21T14:39:52.926Z,27.52
2022-08-21T14:42:42.205Z,27.60
2022-08-21T14:45:31.426Z,27.77
2022-08-21T14:48:18.045Z,27.64
2022-08-21T14:51:04.407Z,27.72
2022-08-21T14:53:51.254Z,27.76
2022-08-21T14:56:37.644Z,27.72
2022-08-21T14:59:24.372Z,27.79
2022-08-21T15:02:11.213Z,27.56
2022-08-21T15:04:57.959Z,27.25
2022-08-21T15:07:45.445Z,27.25
2022-08-21T15:10:34.926Z,27.01
2022-08-21T15:13:21.906Z,26.87
2022-08-21T15:16:10.201Z,26.89
2022-08-21T15:18:56.758Z,26.97
2022-08-21T15:21:43.399Z,26.95
2022-08-21T15:24:29.885Z,26.97
2022-08-21T15:27:19.526Z,26.97
2022-08-21T15:30:06.525Z,26.85
2022-08-21T15:32:52.993Z,26.71
2022-08-21T15:35:41.112Z,26.77
2022-08-21T15:38:28.001Z,27.07
2022-08-21T15:41:14.958Z,26.84
2022-08-21T15:44:01.547Z,26.77
2022-08-21T15:46:47.882Z,26.85
2022-08-21T15:49:34.237Z,26.66
2022-08-21T15:52:22.368Z,26.69
2022-08-21T15:55:10.373Z,26.70
2022-08-21T15:57:56.803Z,26.69
2022-08-21T16:00:45.542Z,26.48
2022-08-21T16:03:33.135Z,26.60
2022-08-21T16:06:37.925Z,26.46
2022-08-21T16:09:26.124Z,26.38
2022-08-21T16:12:20.807Z,26.17
2022-08-21T16:15:14.447Z,26.20
2022-08-21T16:18:07.052Z,26.06
2022-08-21T16:20:56.176Z,26.05
2022-08-21T16:23:42.703Z,26.00
2022-08-21T16:26:30.391Z,26.23
2022-08-21T16:29:18.446Z,26.00
2022-08-21T16:32:06.081Z,25.85
2022-08-21T16:34:53.024Z,25.83
2022-08-21T16:37:41.661Z,25.76
2022-08-21T16:40:28.513Z,25.78
2022-08-21T16:43:15.233Z,25.99
2022-08-21T16:46:02.312Z,26.17
2022-08-21T16:48:50.027Z,25.91
2022-08-21T16:51:37.622Z,25.84
2022-08-21T16:54:24.297Z,25.90
2022-08-21T16:57:11.802Z,25.85
2022-08-21T16:59:58.118Z,25.75
2022-08-21T17:02:48.362Z,25.92
2022-08-21T17:05:34.768Z,25.91
2022-08-21T17:08:21.090Z,25.68
2022-08-21T17:11:36.835Z,25.76
2022-08-21T17:14:24.834Z,25.77
2022-08-21T17:17:11.770Z,25.86
2022-08-21T17:19:58.073Z,25.77
2022-08-21T17:22:44.287Z,25.35
2022-08-21T17:25:31.189Z,25.73
2022-08-21T17:28:22.998Z,25.74
2022-08-21T17:31:11.630Z,25.67
2022-08-21T17:33:57.938Z,25.40
2022-08-21T17:36:44.595Z,25.39
2022-08-21T17:39:30.943Z,25.47
2022-08-21T17:42:18.525Z,25.36
2022-08-21T17:45:05.245Z,25.18
2022-08-21T17:47:51.672Z,25.04
2022-08-21T17:50:38.330Z,24.76
2022-08-21T17:53:24.670Z,24.71
2022-08-21T17:56:15.816Z,24.95
2022-08-21T17:59:04.575Z,24.91
2022-08-21T18:01:52.252Z,24.75
2022-08-21T18:04:38.507Z,24.42
2022-08-21T18:07:31.906Z,24.32
2022-08-21T18:10:19.633Z,24.41
2022-08-21T18:13:08.713Z,24.22
2022-08-21T18:15:57.295Z,24.19
2022-08-21T18:18:43.640Z,24.04
2022-08-21T18:21:32.384Z,23.94
2022-08-21T18:24:19.282Z,24.01
2022-08-21T18:27:07.911Z,23.69
2022-08-21T18:29:56.851Z,23.54
2022-08-21T18:32:43.781Z,23.21
2022-08-21T18:35:30.596Z,23.07
2022-08-21T18:38:21.118Z,22.59
2022-08-21T18:41:10.442Z,22.53
2022-08-21T18:43:56.922Z,21.95
2022-08-21T18:46:49.928Z,21.81
2022-08-21T18:49:36.253Z,21.62
2022-08-21T18:52:22.822Z,21.32
2022-08-21T18:55:16.598Z,21.40
2022-08-21T18:58:03.700Z,21.22
2022-08-21T19:00:52.432Z,20.87
2022-08-21T19:03:39.589Z,20.66
2022-08-21T19:06:26.123Z,20.52
2022-08-21T19:09:12.553Z,20.46
2022-08-21T19:12:03.006Z,20.22
2022-08-21T19:14:49.571Z,20.09
2022-08-21T19:17:41.215Z,20.23
2022-08-21T19:20:34.553Z,20.07
2022-08-21T19:23:29.136Z,19.64
2022-08-21T19:26:16.981Z,19.49
2022-08-21T19:29:08.772Z,19.60
2022-08-21T19:31:55.667Z,19.29
2022-08-21T19:34:43.321Z,19.27
2022-08-21T19:37:29.561Z,19.30
2022-08-21T19:40:16.483Z,19.06
2022-08-21T19:43:03.066Z,19.01
2022-08-21T19:45:58.605Z,18.91
2022-08-21T19:51:51.668Z,18.71
2022-08-21T19:54:38.410Z,18.72
2022-08-21T19:57:24.933Z,18.58
2022-08-21T20:00:12.059Z,18.47
2022-08-21T20:02:58.670Z,18.42
2022-08-21T20:05:44.915Z,18.44
2022-08-21T20:08:31.330Z,18.45
2022-08-21T20:11:26.197Z,18.13
2022-08-21T20:14:14.961Z,18.19
2022-08-21T20:17:08.157Z,18.04
2022-08-21T20:19:56.913Z,17.98
2022-08-21T20:22:43.634Z,17.81
2022-08-21T20:25:33.521Z,17.99
2022-08-21T20:28:20.680Z,17.70
2022-08-21T20:31:09.580Z,17.68
2022-08-21T20:33:56.477Z,17.38
2022-08-21T20:36:42.945Z,17.39
2022-08-21T20:39:29.832Z,17.28
2022-08-21T20:42:16.654Z,17.30
2022-08-21T20:45:08.029Z,17.22
2022-08-21T20:48:01.687Z,17.25
2022-08-21T20:50:52.046Z,16.95
2022-08-21T20:54:01.071Z,16.85
2022-08-21T20:57:03.603Z,17.01
2022-08-21T21:00:07.053Z,16.79
2022-08-21T21:03:09.862Z,16.89
2022-08-21T21:06:11.270Z,16.59
2022-08-21T21:09:06.934Z,16.67
2022-08-21T21:11:58.763Z,16.51
2022-08-21T21:14:53.702Z,16.60
2022-08-21T21:18:02.251Z,16.43
2022-08-21T21:21:05.114Z,16.23
2022-08-21T21:24:11.997Z,16.28
2022-08-21T21:27:11.615Z,16.27
2022-08-21T21:30:05.301Z,16.27
2022-08-21T21:32:51.556Z,16.24
2022-08-21T21:35:44.788Z,16.22
2022-08-21T21:38:52.668Z,16.17
2022-08-21T21:41:54.390Z,16.03
2022-08-21T21:45:18.394Z,16.07
2022-08-21T21:48:29.452Z,15.98
2022-08-21T21:51:35.255Z,15.89
2022-08-21T21:54:53.688Z,15.79
2022-08-21T21:57:40.301Z,15.73
2022-08-21T22:00:29.749Z,15.61
2022-08-21T22:03:56.484Z,15.63
2022-08-21T22:07:07.190Z,15.56
2022-08-21T22:10:19.858Z,15.33
2022-08-21T22:13:48.357Z,15.51
2022-08-21T22:16:36.600Z,15.38
2022-08-21T22:19:30.689Z,15.26
2022-08-21T22:22:21.096Z,15.43
2022-08-21T22:25:23.879Z,15.36
2022-08-21T22:28:25.450Z,15.14
2022-08-21T22:31:21.041Z,15.35
2022-08-21T22:34:19.497Z,15.32
2022-08-21T22:37:11.094Z,15.25
2022-08-21T22:39:57.904Z,15.21
2022-08-21T22:42:57.868Z,14.87
2022-08-21T22:46:02.117Z,15.02
2022-08-21T22:49:00.627Z,14.89
2022-08-21T22:51:49.159Z,14.91
2022-08-21T22:54:40.864Z,14.76
2022-08-21T22:57:32.730Z,14.84
2022-08-21T23:00:47.262Z,14.77
2022-08-21T23:03:43.457Z,14.76
2022-08-21T23:06:55.202Z,14.71
2022-08-21T23:09:49.781Z,14.47
2022-08-21T23:12:43.710Z,14.47
2022-08-21T23:15:52.530Z,14.61
2022-08-21T23:19:06.719Z,14.55
2022-08-21T23:22:02.114Z,14.51
2022-08-21T23:25:07.202Z,14.44
2022-08-21T23:27:53.604Z,14.50
2022-08-21T23:30:47.850Z,14.52
2022-08-21T23:33:56.206Z,14.58
2022-08-21T23:41:10.952Z,14.54
2022-08-21T23:44:34.638Z,14.80
2022-08-21T23:47:51.101Z,14.79
2022-08-21T23:50:55.021Z,14.78
2022-08-21T23:54:03.774Z,14.74
2022-08-21T23:57:02.550Z,14.70
